createdAt,value
2024-05-09T00:00:46.684Z,101015.97
2024-05-09T00:03:14.620Z,101006.19
2024-05-09T00:05:43.791Z,101002.88
2024-05-09T00:08:12.635Z,101003.47
2024-05-09T00:10:41.322Z,100982.88
2024-05-09T00:13:11.127Z,100990.38
2024-05-09T00:15:39.243Z,100992.06
2024-05-09T00:18:08.858Z,100989.34
2024-05-09T00:20:40.025Z,100981.91
2024-05-09T00:23:13.889Z,100996.50
2024-05-09T00:25:45.521Z,100990.06
2024-05-09T00:28:13.727Z,100982.63
2024-05-09T00:30:41.594Z,100982.22
2024-05-09T00:33:10.975Z,100974.34
2024-05-09T00:35:40.075Z,100967.06
2024-05-09T00:38:08.384Z,100965.78
2024-05-09T00:40:42.290Z,100955.16
2024-05-09T00:43:13.121Z,100954.97
2024-05-09T00:45:42.735Z,100956.00
2024-05-09T00:48:14.331Z,100946.00
2024-05-09T00:50:47.450Z,100954.72
2024-05-09T00:53:18.393Z,100951.00
2024-05-09T00:55:47.792Z,100945.81
2024-05-09T00:58:18.323Z,100948.50
2024-05-09T01:00:46.787Z,100943.50
2024-05-09T01:03:14.860Z,100945.38
2024-05-09T01:05:44.040Z,100939.41
2024-05-09T01:08:13.334Z,100941.31
2024-05-09T01:10:44.831Z,100942.78
2024-05-09T01:13:13.985Z,100944.59
2024-05-09T01:15:42.431Z,100943.16
2024-05-09T01:18:12.373Z,100925.75
2024-05-09T01:20:44.038Z,100925.28
2024-05-09T01:23:15.606Z,100924.47
2024-05-09T01:25:45.987Z,100923.28
2024-05-09T01:28:15.236Z,100924.53
2024-05-09T01:30:43.292Z,100918.06
2024-05-09T01:33:12.416Z,100920.78
2024-05-09T01:35:42.339Z,100916.69
2024-05-09T01:38:17.086Z,100913.56
2024-05-09T01:40:45.495Z,100910.44
2024-05-09T01:43:13.311Z,100910.44
2024-05-09T01:45:41.674Z,100910.44
2024-05-09T01:48:11.267Z,100899.03
2024-05-09T01:50:42.195Z,100902.94
2024-05-09T01:53:13.862Z,100905.38
2024-05-09T01:55:42.629Z,100905.59
2024-05-09T01:58:10.662Z,100890.06
2024-05-09T02:00:42.430Z,100886.94
2024-05-09T02:03:15.520Z,100892.53
2024-05-09T02:05:47.272Z,100888.41
2024-05-09T02:08:20.788Z,100881.13
2024-05-09T02:10:50.041Z,100876.69
2024-05-09T02:13:19.080Z,100874.81
2024-05-09T02:15:46.995Z,100875.03
2024-05-09T02:18:14.952Z,100878.59
2024-05-09T02:20:43.572Z,100877.63
2024-05-09T02:23:12.531Z,100875.56
2024-05-09T02:25:41.467Z,100857.09
2024-05-09T02:28:09.334Z,100850.44
2024-05-09T02:30:40.686Z,100854.78
2024-05-09T02:33:12.710Z,100838.56
2024-05-09T02:35:43.743Z,100844.41
2024-05-09T02:38:12.627Z,100839.59
2024-05-09T02:40:40.982Z,100841.69
2024-05-09T02:43:12.393Z,100845.03
2024-05-09T02:45:40.940Z,100840.69
2024-05-09T02:48:13.047Z,100838.19
2024-05-09T02:50:42.213Z,100835.78
2024-05-09T02:53:11.818Z,100841.78
2024-05-09T02:55:40.366Z,100826.22
2024-05-09T02:58:08.563Z,100826.22
2024-05-09T03:00:40.211Z,100821.88
2024-05-09T03:03:13.393Z,100813.75
2024-05-09T03:05:44.631Z,100815.66
2024-05-09T03:08:13.083Z,100817.34
2024-05-09T03:10:40.982Z,100816.06
2024-05-09T03:13:11.623Z,100813.78
2024-05-09T03:15:39.646Z,100801.09
2024-05-09T03:18:07.707Z,100806.28
2024-05-09T03:20:36.815Z,100802.31
2024-05-09T03:23:08.119Z,100809.28
2024-05-09T03:25:37.087Z,100806.41
2024-05-09T03:28:05.194Z,100805.63
2024-05-09T03:30:40.165Z,100801.00
2024-05-09T03:33:12.902Z,100804.97
2024-05-09T03:35:42.051Z,100798.97
2024-05-09T03:38:10.123Z,100795.47
2024-05-09T03:40:45.010Z,100792.19
2024-05-09T03:43:13.006Z,100780.75
2024-05-09T03:45:40.978Z,100782.41
2024-05-09T03:48:09.112Z,100789.47
2024-05-09T03:50:37.558Z,100788.63
2024-05-09T03:53:06.536Z,100789.09
2024-05-09T03:55:34.215Z,100787.81
2024-05-09T03:58:01.992Z,100776.31
2024-05-09T04:00:37.097Z,100768.59
2024-05-09T04:03:09.985Z,100769.44
2024-05-09T04:05:42.174Z,100771.31
2024-05-09T04:08:11.320Z,100764.88
2024-05-09T04:10:39.409Z,100755.28
2024-05-09T04:13:07.196Z,100751.94
2024-05-09T04:15:34.958Z,100747.75
2024-05-09T04:18:03.094Z,100736.13
2024-05-09T04:20:38.059Z,100738.19
2024-05-09T04:23:12.239Z,100737.50
2024-05-09T04:25:45.250Z,100729.81
2024-05-09T04:28:14.491Z,100728.75
2024-05-09T04:30:42.954Z,100722.47
2024-05-09T04:33:13.358Z,100713.78
2024-05-09T04:35:45.604Z,100718.56
2024-05-09T04:38:14.676Z,100706.88
2024-05-09T04:40:43.325Z,100703.94
2024-05-09T04:43:16.280Z,100703.56
2024-05-09T04:45:44.335Z,100712.31
2024-05-09T04:48:12.282Z,100714.66
2024-05-09T04:50:40.488Z,100706.09
2024-05-09T04:53:10.583Z,100693.41
2024-05-09T04:55:40.538Z,100689.84
2024-05-09T04:58:09.336Z,100689.38
2024-05-09T05:00:39.451Z,100676.50
2024-05-09T05:03:10.801Z,100666.06
2024-05-09T05:05:41.824Z,100676.00
2024-05-09T05:08:13.897Z,100674.66
2024-05-09T05:10:43.186Z,100674.19
2024-05-09T05:13:23.045Z,100674.97
2024-05-09T05:15:57.706Z,100665.78
2024-05-09T05:18:27.932Z,100661.00
2024-05-09T05:20:56.725Z,100659.44
2024-05-09T05:23:24.894Z,100649.16
2024-05-09T05:25:53.612Z,100647.63
2024-05-09T05:28:22.179Z,100647.56
2024-05-09T05:30:50.399Z,100641.91
2024-05-09T05:33:19.281Z,100642.66
2024-05-09T05:35:48.253Z,100641.53
2024-05-09T05:38:16.170Z,100647.22
2024-05-09T05:40:44.089Z,100643.38
2024-05-09T05:43:19.193Z,100635.78
2024-05-09T05:45:47.092Z,100630.41
2024-05-09T05:48:18.682Z,100633.84
2024-05-09T05:50:46.884Z,100634.22
2024-05-09T05:53:14.881Z,100636.69
2024-05-09T05:55:42.819Z,100643.06
2024-05-09T05:58:11.904Z,100648.25
2024-05-09T06:00:41.967Z,100633.28
2024-05-09T06:03:12.937Z,100631.19
2024-05-09T06:05:44.120Z,100629.53
2024-05-09T06:08:12.573Z,100629.38
2024-05-09T06:10:41.623Z,100622.47
2024-05-09T06:13:13.722Z,100616.56
2024-05-09T06:15:42.536Z,100611.13
2024-05-09T06:18:12.142Z,100606.88
2024-05-09T06:20:42.852Z,100605.47
2024-05-09T06:23:12.246Z,100597.13
2024-05-09T06:25:40.628Z,100592.91
2024-05-09T06:28:08.439Z,100584.31
2024-05-09T06:30:40.622Z,100578.56
2024-05-09T06:33:13.038Z,100574.00
2024-05-09T06:35:43.798Z,100578.34
2024-05-09T06:38:12.241Z,100583.06
2024-05-09T06:40:42.895Z,100572.94
2024-05-09T06:43:17.582Z,100569.84
2024-05-09T06:45:48.599Z,100570.09
2024-05-09T06:48:20.883Z,100569.25
2024-05-09T06:50:49.940Z,100566.47
2024-05-09T06:53:20.603Z,100569.50
2024-05-09T06:55:48.466Z,100570.31
2024-05-09T06:58:16.419Z,100563.25
2024-05-09T07:00:44.271Z,100561.50
2024-05-09T07:03:16.258Z,100564.31
2024-05-09T07:05:47.540Z,100552.31
2024-05-09T07:08:17.125Z,100548.78
2024-05-09T07:10:45.241Z,100544.53
2024-05-09T07:13:14.299Z,100542.31
2024-05-09T07:15:42.293Z,100535.09
2024-05-09T07:18:20.091Z,100534.66
2024-05-09T07:20:49.441Z,100531.94
2024-05-09T07:23:18.860Z,100518.88
2024-05-09T07:25:47.087Z,100518.38
2024-05-09T07:28:16.647Z,100513.91
2024-05-09T07:30:45.131Z,100519.47
2024-05-09T07:33:21.375Z,100517.91
2024-05-09T07:35:50.716Z,100508.47
2024-05-09T07:38:18.792Z,100512.59
2024-05-09T07:40:46.912Z,100507.19
2024-05-09T07:43:16.140Z,100503.66
2024-05-09T07:45:52.228Z,100505.88
2024-05-09T07:52:38.662Z,100499.06
2024-05-09T07:53:47.378Z,100494.91
2024-05-09T07:56:21.263Z,100490.91
2024-05-09T07:58:51.852Z,100480.91
2024-05-09T08:01:20.720Z,100479.59
2024-05-09T08:03:49.066Z,100482.50
2024-05-09T08:06:17.160Z,100478.16
2024-05-09T08:08:47.897Z,100473.09
2024-05-09T08:11:16.145Z,100467.75
2024-05-09T08:13:43.975Z,100468.69
2024-05-09T08:16:14.830Z,100464.31
2024-05-09T08:18:42.887Z,100457.94
2024-05-09T08:21:10.783Z,100455.88
2024-05-09T08:23:38.528Z,100448.81
2024-05-09T08:26:06.351Z,100443.06
2024-05-09T08:28:34.118Z,100440.28
2024-05-09T08:31:06.036Z,100439.81
2024-05-09T08:33:35.235Z,100423.56
2024-05-09T08:36:03.270Z,100427.03
2024-05-09T08:38:31.018Z,100423.09
2024-05-09T08:40:58.911Z,100413.44
2024-05-09T08:43:27.571Z,100414.72
2024-05-09T08:45:55.787Z,100414.25
2024-05-09T08:48:24.554Z,100407.50
2024-05-09T08:50:53.500Z,100414.09
2024-05-09T08:53:21.409Z,100404.06
2024-05-09T08:55:51.227Z,100401.09
2024-05-09T08:58:19.680Z,100398.94
2024-05-09T09:00:48.640Z,100400.13
2024-05-09T09:03:25.323Z,100394.19
2024-05-09T09:06:04.895Z,100392.38
2024-05-09T09:08:32.744Z,100386.25
2024-05-09T09:11:00.893Z,100384.75
2024-05-09T09:13:28.686Z,100387.88
2024-05-09T09:16:00.170Z,100374.59
2024-05-09T09:18:30.464Z,100379.28
2024-05-09T09:20:58.849Z,100375.84
2024-05-09T09:23:30.377Z,100365.66
2024-05-09T09:26:02.050Z,100374.69
2024-05-09T09:28:30.072Z,100364.75
2024-05-09T09:31:03.236Z,100360.25
2024-05-09T09:33:32.075Z,100361.16
2024-05-09T09:36:02.879Z,100359.00
2024-05-09T09:38:32.512Z,100360.97
2024-05-09T09:41:03.299Z,100354.69
2024-05-09T09:43:32.983Z,100355.56
2024-05-09T09:46:02.269Z,100346.84
2024-05-09T09:48:31.712Z,100344.91
2024-05-09T09:51:00.093Z,100335.03
2024-05-09T09:53:33.520Z,100339.91
2024-05-09T09:56:02.419Z,100331.16
2024-05-09T09:58:33.036Z,100325.28
2024-05-09T10:01:00.422Z,100317.72
2024-05-09T10:03:28.046Z,100317.19
2024-05-09T10:05:56.395Z,100306.56
2024-05-09T10:08:24.672Z,100305.47
2024-05-09T10:10:52.470Z,100291.13
2024-05-09T10:13:20.178Z,100293.25
2024-05-09T10:15:51.740Z,100289.06
2024-05-09T10:18:28.590Z,100288.28
2024-05-09T10:20:58.086Z,100278.31
2024-05-09T10:23:26.809Z,100266.41
2024-05-09T10:26:06.568Z,100263.19
2024-05-09T10:28:36.945Z,100254.81
2024-05-09T10:31:11.548Z,100270.63
2024-05-09T10:33:50.210Z,100252.97
2024-05-09T10:36:29.212Z,100247.59
2024-05-09T10:38:56.481Z,100234.03
2024-05-09T10:41:24.078Z,100227.59
2024-05-09T10:43:52.068Z,100217.78
2024-05-09T10:46:19.993Z,100206.63
2024-05-09T10:48:48.650Z,100204.78
2024-05-09T10:51:19.303Z,100198.78
2024-05-09T10:53:48.982Z,100189.03
2024-05-09T10:56:17.351Z,100189.00
2024-05-09T10:58:45.060Z,100186.31
2024-05-09T11:01:13.733Z,100185.22
2024-05-09T11:03:41.874Z,100187.94
2024-05-09T11:06:11.422Z,100169.16
2024-05-09T11:08:39.570Z,100159.09
2024-05-09T11:11:08.701Z,100148.19
2024-05-09T11:13:38.129Z,100159.09
2024-05-09T11:16:07.584Z,100151.19
2024-05-09T11:18:39.150Z,100148.47
2024-05-09T11:21:13.497Z,100147.63
2024-05-09T11:23:41.845Z,100142.75
2024-05-09T11:26:11.130Z,100137.84
2024-05-09T11:28:38.495Z,100132.94
2024-05-09T11:31:10.406Z,100123.13
2024-05-09T11:33:40.031Z,100127.22
2024-05-09T11:36:08.904Z,100118.78
2024-05-09T11:38:36.121Z,100113.28
2024-05-09T11:41:05.571Z,100102.88
2024-05-09T11:43:33.498Z,100096.81
2024-05-09T11:46:03.017Z,100103.88
2024-05-09T11:48:31.133Z,100104.38
2024-05-09T11:50:58.919Z,100098.31
2024-05-09T11:53:26.143Z,100095.56
2024-05-09T11:55:53.691Z,100094.53
2024-05-09T11:58:23.068Z,100088.81
2024-05-09T12:00:50.549Z,100082.00
2024-05-09T12:03:18.149Z,100065.59
2024-05-09T12:05:45.719Z,100066.56
2024-05-09T12:08:13.262Z,100062.09
2024-05-09T12:10:40.850Z,100056.56
2024-05-09T12:13:08.602Z,100054.59
2024-05-09T12:15:38.024Z,100049.34
2024-05-09T12:18:07.313Z,100057.41
2024-05-09T12:20:38.445Z,100055.53
2024-05-09T12:23:09.726Z,100039.13
2024-05-09T12:25:39.161Z,100048.34
2024-05-09T12:28:07.896Z,100045.84
2024-05-09T12:30:40.177Z,100043.63
2024-05-09T12:33:11.308Z,100040.69
2024-05-09T12:35:39.671Z,100032.16
2024-05-09T12:38:07.152Z,100023.78
2024-05-09T12:40:37.584Z,100022.91
2024-05-09T12:43:08.447Z,100032.34
2024-05-09T12:45:37.507Z,100033.88
2024-05-09T12:48:08.423Z,100026.00
2024-05-09T12:50:36.854Z,100019.41
2024-05-09T12:53:05.223Z,100021.63
2024-05-09T12:55:41.133Z,100012.19
2024-05-09T12:58:17.382Z,100005.25
2024-05-09T13:00:46.179Z,100005.22
2024-05-09T13:03:14.074Z,100006.03
2024-05-09T13:05:42.128Z,100009.75
2024-05-09T13:08:09.704Z,100004.44
2024-05-09T13:10:37.176Z,100003.34
2024-05-09T13:13:05.025Z,99995.41
2024-05-09T13:15:34.866Z,99999.25
2024-05-09T13:18:03.591Z,99996.03
2024-05-09T13:20:34.432Z,99982.94
2024-05-09T13:23:08.103Z,99983.47
2024-05-09T13:25:37.391Z,99986.94
2024-05-09T13:28:06.289Z,99983.88
2024-05-09T13:30:39.900Z,99967.44
2024-05-09T13:33:14.471Z,99966.59
2024-05-09T13:35:47.076Z,99964.38
2024-05-09T13:38:21.960Z,99966.75
2024-05-09T13:40:50.617Z,99956.28
2024-05-09T13:43:18.696Z,99966.88
2024-05-09T13:45:46.873Z,99958.84
2024-05-09T13:48:14.541Z,99955.03
2024-05-09T13:50:42.033Z,99951.53
2024-05-09T13:53:09.379Z,99952.97
2024-05-09T13:55:42.164Z,99953.09
2024-05-09T13:58:09.848Z,99951.50
2024-05-09T14:00:45.919Z,99957.06
2024-05-09T14:03:20.359Z,99955.16
2024-05-09T14:05:51.091Z,99950.00
2024-05-09T14:08:22.130Z,99957.72
2024-05-09T14:10:50.468Z,99951.59
2024-05-09T14:13:18.234Z,99951.38
2024-05-09T14:15:46.826Z,99942.06
2024-05-09T14:18:14.781Z,99942.69
2024-05-09T14:20:43.343Z,99943.84
2024-05-09T14:23:12.474Z,99949.34
2024-05-09T14:25:42.806Z,99943.88
2024-05-09T14:28:12.687Z,99937.34
2024-05-09T14:30:43.866Z,99940.31
2024-05-09T14:33:11.741Z,99946.31
2024-05-09T14:35:39.947Z,99943.94
2024-05-09T14:38:08.370Z,99945.03
2024-05-09T14:40:41.968Z,99934.09
2024-05-09T14:43:12.859Z,99934.72
2024-05-09T14:45:41.153Z,99929.25
2024-05-09T14:48:08.962Z,99932.00
2024-05-09T14:50:39.202Z,99926.25
2024-05-09T14:53:09.234Z,99919.38
2024-05-09T14:55:39.275Z,99906.50
2024-05-09T14:58:08.387Z,99909.84
2024-05-09T15:00:47.890Z,99906.00
2024-05-09T15:03:21.822Z,99898.59
2024-05-09T15:05:50.355Z,99895.28
2024-05-09T15:08:18.772Z,99887.56
2024-05-09T15:10:46.846Z,99885.81
2024-05-09T15:13:16.495Z,99884.34
2024-05-09T15:15:45.058Z,99886.66
2024-05-09T15:18:13.705Z,99881.91
2024-05-09T15:20:41.921Z,99877.47
2024-05-09T15:23:09.339Z,99874.56
2024-05-09T15:25:37.044Z,99885.84
2024-05-09T15:28:07.820Z,99882.81
2024-05-09T15:30:35.776Z,99876.44
2024-05-09T15:33:04.191Z,99873.63
2024-05-09T15:35:32.127Z,99872.28
2024-05-09T15:38:00.075Z,99871.47
2024-05-09T15:40:36.101Z,99868.75
2024-05-09T15:43:08.420Z,99857.56
2024-05-09T15:45:36.685Z,99857.34
2024-05-09T15:48:04.685Z,99853.38
2024-05-09T15:50:37.603Z,99851.19
2024-05-09T15:53:12.229Z,99851.34
2024-05-09T15:55:40.591Z,99850.59
2024-05-09T15:58:08.334Z,99843.25
2024-05-09T16:00:39.857Z,99845.25
2024-05-09T16:03:10.962Z,99849.66
2024-05-09T16:05:39.267Z,99834.28
2024-05-09T16:08:07.817Z,99846.88
2024-05-09T16:10:35.767Z,99852.09
2024-05-09T16:13:04.186Z,99840.88
2024-05-09T16:15:31.949Z,99841.75
2024-05-09T16:18:00.409Z,99845.34
2024-05-09T16:20:34.790Z,99845.91
2024-05-09T16:23:07.151Z,99846.19
2024-05-09T16:25:34.414Z,99838.78
2024-05-09T16:28:01.990Z,99837.66
2024-05-09T16:30:34.796Z,99845.91
2024-05-09T16:33:04.818Z,99842.91
2024-05-09T16:35:34.882Z,99845.91
2024-05-09T16:38:03.842Z,99843.25
2024-05-09T16:40:37.999Z,99844.53
2024-05-09T16:43:12.340Z,99838.25
2024-05-09T16:45:44.237Z,99841.78
2024-05-09T16:48:13.358Z,99841.53
2024-05-09T16:50:40.771Z,99847.53
2024-05-09T16:53:08.691Z,99845.34
2024-05-09T16:55:36.480Z,99842.06
2024-05-09T16:58:04.963Z,99834.94
2024-05-09T17:00:40.221Z,99845.34
2024-05-09T17:03:13.051Z,99839.91
2024-05-09T17:05:42.130Z,99841.53
2024-05-09T17:08:10.252Z,99837.59
2024-05-09T17:10:37.716Z,99839.53
2024-05-09T17:13:07.231Z,99835.41
2024-05-09T17:15:37.029Z,99835.34
2024-05-09T17:18:06.572Z,99837.75
2024-05-09T17:20:36.580Z,99831.72
2024-05-09T17:23:13.309Z,99830.41
2024-05-09T17:25:42.153Z,99830.41
2024-05-09T17:28:10.454Z,99832.28
2024-05-09T17:30:39.994Z,99824.84
2024-05-09T17:33:10.536Z,99827.53
2024-05-09T17:35:38.939Z,99822.88
2024-05-09T17:38:06.827Z,99822.88
2024-05-09T17:40:36.754Z,99822.56
2024-05-09T17:43:07.062Z,99835.44
2024-05-09T17:45:37.923Z,99828.34
2024-05-09T17:48:05.924Z,99829.75
2024-05-09T17:50:36.175Z,99830.91
2024-05-09T17:53:10.973Z,99834.22
2024-05-09T17:55:39.154Z,99830.16
2024-05-09T17:58:06.770Z,99832.88
2024-05-09T18:00:39.318Z,99835.91
2024-05-09T18:03:13.773Z,99837.50
2024-05-09T18:05:43.296Z,99844.06
2024-05-09T18:08:12.387Z,99839.16
2024-05-09T18:10:43.114Z,99834.81
2024-05-09T18:13:12.236Z,99843.84
2024-05-09T18:15:40.244Z,99846.56
2024-05-09T18:18:09.195Z,99846.88
2024-05-09T18:20:42.999Z,99843.63
2024-05-09T18:23:15.599Z,99842.00
2024-05-09T18:25:47.253Z,99842.84
2024-05-09T18:28:16.432Z,99839.28
2024-05-09T18:30:44.413Z,99843.44
2024-05-09T18:33:12.353Z,99841.78
2024-05-09T18:35:42.606Z,99843.19
2024-05-09T18:38:10.447Z,99845.09
2024-05-09T18:40:39.469Z,99850.34
2024-05-09T18:43:09.406Z,99839.75
2024-05-09T18:45:38.408Z,99847.72
2024-05-09T18:48:07.932Z,99840.91
2024-05-09T18:50:39.248Z,99845.34
2024-05-09T18:53:12.562Z,99846.72
2024-05-09T18:55:42.775Z,99851.44
2024-05-09T18:58:10.493Z,99848.97
2024-05-09T19:00:40.425Z,99848.75
2024-05-09T19:03:13.519Z,99854.00
2024-05-09T19:05:44.192Z,99865.53
2024-05-09T19:08:13.101Z,99862.81
2024-05-09T19:10:41.100Z,99861.75
2024-05-09T19:13:12.129Z,99869.19
2024-05-09T19:15:42.051Z,99873.31
2024-05-09T19:18:11.231Z,99868.41
2024-05-09T19:20:39.193Z,99871.69
2024-05-09T19:23:07.404Z,99866.78
2024-05-09T19:25:36.475Z,99868.19
2024-05-09T19:28:05.809Z,99872.31
2024-05-09T19:30:38.978Z,99876.13
2024-05-09T19:33:10.918Z,99873.47
2024-05-09T19:35:39.522Z,99878.41
2024-05-09T19:38:09.535Z,99879.50
2024-05-09T19:40:37.094Z,99878.97
2024-05-09T19:43:06.295Z,99880.06
2024-05-09T19:45:35.396Z,99883.41
2024-05-09T19:48:06.882Z,99890.28
2024-05-09T19:50:41.496Z,99893.53
2024-05-09T19:53:15.597Z,99896.88
2024-05-09T19:55:44.337Z,99900.47
2024-05-09T19:58:14.691Z,99905.63
2024-05-09T20:00:43.738Z,99907.31
2024-05-09T20:03:14.928Z,99909.53
2024-05-09T20:05:46.186Z,99902.72
2024-05-09T20:08:14.542Z,99914.22
2024-05-09T20:10:41.888Z,99911.50
2024-05-09T20:13:09.321Z,99912.59
2024-05-09T20:15:37.963Z,99916.44
2024-05-09T20:18:06.572Z,99917.28
2024-05-09T20:20:39.080Z,99917.03
2024-05-09T20:23:13.157Z,99916.22
2024-05-09T20:25:43.649Z,99926.59
2024-05-09T20:28:11.414Z,99929.59
2024-05-09T20:30:38.961Z,99935.06
2024-05-09T20:33:07.831Z,99927.16
2024-05-09T20:35:38.472Z,99937.25
2024-05-09T20:38:11.708Z,99933.19
2024-05-09T20:40:39.879Z,99940.53
2024-05-09T20:43:09.927Z,99936.69
2024-05-09T20:45:37.758Z,99944.06
2024-05-09T20:48:06.037Z,99946.50
2024-05-09T20:50:39.136Z,99948.97
2024-05-09T20:53:10.319Z,99948.69
2024-05-09T20:55:40.865Z,99949.78
2024-05-09T20:58:11.433Z,99942.72
2024-05-09T21:00:42.771Z,99944.88
2024-05-09T21:03:13.821Z,99955.22
2024-05-09T21:05:42.222Z,99957.38
2024-05-09T21:08:09.533Z,99957.09
2024-05-09T21:10:37.613Z,99958.47
2024-05-09T21:13:06.834Z,99966.06
2024-05-09T21:15:36.514Z,99966.34
2024-05-09T21:18:07.627Z,99969.88
2024-05-09T21:20:35.408Z,99980.50
2024-05-09T21:23:03.613Z,99981.28
2024-05-09T21:25:31.437Z,99988.66
2024-05-09T21:27:58.956Z,99988.06
2024-05-09T21:30:33.211Z,99990.22
2024-05-09T21:33:10.196Z,99986.41
2024-05-09T21:35:39.086Z,99984.22
2024-05-09T21:38:07.372Z,99980.09
2024-05-09T21:40:36.594Z,99987.72
2024-05-09T21:43:06.139Z,99996.69
2024-05-09T21:45:34.306Z,99993.09
2024-05-09T21:48:04.302Z,99995.81
2024-05-09T21:50:38.926Z,100003.16
2024-05-09T21:53:09.648Z,99993.16
2024-05-09T21:55:37.028Z,99990.47
2024-05-09T21:58:04.551Z,100004.66
2024-05-09T22:00:36.602Z,100003.31
2024-05-09T22:03:10.850Z,100014.50
2024-05-09T22:05:42.354Z,100027.59
2024-05-09T22:08:10.015Z,100025.75
2024-05-09T22:10:37.718Z,100026.59
2024-05-09T22:13:08.928Z,100026.06
2024-05-09T22:15:38.505Z,100035.00
2024-05-09T22:18:08.570Z,100036.34
2024-05-09T22:20:39.373Z,100041.25
2024-05-09T22:23:08.689Z,100037.69
2024-05-09T22:25:37.329Z,100041.50
2024-05-09T22:28:05.462Z,100052.69
2024-05-09T22:30:37.276Z,100050.25
2024-05-09T22:33:08.987Z,100060.84
2024-05-09T22:35:37.465Z,100066.00
2024-05-09T22:38:05.167Z,100067.91
2024-05-09T22:40:42.200Z,100065.75
2024-05-09T22:43:23.451Z,100067.94
2024-05-09T22:45:53.312Z,100076.09
2024-05-09T22:48:20.894Z,100085.63
2024-05-09T22:50:48.171Z,100083.16
2024-05-09T22:53:15.896Z,100102.50
2024-05-09T22:55:43.166Z,100107.63
2024-05-09T22:58:10.430Z,100110.91
2024-05-09T23:00:37.804Z,100109.28
2024-05-09T23:03:05.299Z,100110.34
2024-05-09T23:05:33.107Z,100123.66
2024-05-09T23:08:02.128Z,100122.56
2024-05-09T23:10:35.687Z,100121.75
2024-05-09T23:13:06.500Z,100118.75
2024-05-09T23:15:34.202Z,100120.09
2024-05-09T23:18:01.707Z,100135.88
2024-05-09T23:20:36.395Z,100136.91
2024-05-09T23:23:07.313Z,100138.50
2024-05-09T23:25:35.115Z,100144.72
2024-05-09T23:28:02.762Z,100150.91
2024-05-09T23:30:37.482Z,100148.97
2024-05-09T23:33:09.689Z,100160.06
2024-05-09T23:35:37.471Z,100157.00
2024-05-09T23:38:04.969Z,100174.34
2024-05-09T23:43:03.312Z,100177.19
2024-05-09T23:45:31.197Z,100179.56
2024-05-09T23:47:58.660Z,100178.41
2024-05-09T23:50:33.678Z,100190.81
2024-05-09T23:53:04.500Z,100193.81
2024-05-09T23:55:32.392Z,100201.66
2024-05-09T23:58:00.534Z,100216.25
